sensor_id;sensor_type;location;lat;lon;timestamp;P1;durP1;ratioP1;P2;durP2;ratioP2
55483;SDS011;41345;51.704;5.146;2022-10-16T00:02:47;9.07;;;2.63;;
55483;SDS011;41345;51.704;5.146;2022-10-16T00:07:48;11.07;;;2.50;;
55483;SDS011;41345;51.704;5.146;2022-10-16T00:12:48;6.30;;;2.47;;
55483;SDS011;41345;51.704;5.146;2022-10-16T00:17:49;5.80;;;2.47;;
55483;SDS011;41345;51.704;5.146;2022-10-16T00:22:49;8.00;;;2.70;;
55483;SDS011;41345;51.704;5.146;2022-10-16T00:27:50;9.43;;;2.78;;
55483;SDS011;41345;51.704;5.146;2022-10-16T00:32:50;10.02;;;2.80;;
55483;SDS011;41345;51.704;5.146;2022-10-16T00:37:50;9.27;;;3.13;;
55483;SDS011;41345;51.704;5.146;2022-10-16T00:42:51;9.52;;;2.55;;
55483;SDS011;41345;51.704;5.146;2022-10-16T00:47:52;9.40;;;3.10;;
55483;SDS011;41345;51.704;5.146;2022-10-16T00:52:56;10.18;;;2.80;;
55483;SDS011;41345;51.704;5.146;2022-10-16T00:57:58;6.95;;;2.80;;
55483;SDS011;41345;51.704;5.146;2022-10-16T01:03:00;8.70;;;2.80;;
55483;SDS011;41345;51.704;5.146;2022-10-16T01:13:22;5.90;;;2.50;;
55483;SDS011;41345;51.704;5.146;2022-10-16T01:18:30;8.70;;;2.67;;
55483;SDS011;41345;51.704;5.146;2022-10-16T01:23:56;4.72;;;2.30;;
55483;SDS011;41345;51.704;5.146;2022-10-16T01:34:17;6.15;;;2.30;;
55483;SDS011;41345;51.704;5.146;2022-10-16T01:39:24;3.80;;;1.85;;
55483;SDS011;41345;51.704;5.146;2022-10-16T01:44:29;3.65;;;2.00;;
55483;SDS011;41345;51.704;5.146;2022-10-16T01:49:33;5.10;;;2.20;;
55483;SDS011;41345;51.704;5.146;2022-10-16T01:54:36;3.65;;;1.90;;
55483;SDS011;41345;51.704;5.146;2022-10-16T01:59:46;5.38;;;2.10;;
55483;SDS011;41345;51.704;5.146;2022-10-16T02:04:49;8.07;;;2.47;;
55483;SDS011;41345;51.704;5.146;2022-10-16T02:09:57;6.97;;;2.20;;
55483;SDS011;41345;51.704;5.146;2022-10-16T02:15:00;4.18;;;2.25;;
55483;SDS011;41345;51.704;5.146;2022-10-16T02:20:00;4.47;;;2.40;;
55483;SDS011;41345;51.704;5.146;2022-10-16T02:25:06;4.78;;;2.40;;
55483;SDS011;41345;51.704;5.146;2022-10-16T02:30:15;7.15;;;2.00;;
55483;SDS011;41345;51.704;5.146;2022-10-16T02:35:38;4.45;;;1.98;;
55483;SDS011;41345;51.704;5.146;2022-10-16T02:40:38;4.38;;;1.85;;
55483;SDS011;41345;51.704;5.146;2022-10-16T02:45:39;4.80;;;1.90;;
55483;SDS011;41345;51.704;5.146;2022-10-16T02:50:40;5.00;;;1.90;;
55483;SDS011;41345;51.704;5.146;2022-10-16T02:55:40;6.88;;;1.90;;
55483;SDS011;41345;51.704;5.146;2022-10-16T03:00:41;3.60;;;1.60;;
55483;SDS011;41345;51.704;5.146;2022-10-16T03:05:42;3.80;;;1.60;;
55483;SDS011;41345;51.704;5.146;2022-10-16T03:10:45;4.20;;;1.80;;
55483;SDS011;41345;51.704;5.146;2022-10-16T03:15:46;4.13;;;1.40;;
55483;SDS011;41345;51.704;5.146;2022-10-16T03:20:47;4.25;;;1.90;;
55483;SDS011;41345;51.704;5.146;2022-10-16T03:25:47;4.25;;;1.60;;
55483;SDS011;41345;51.704;5.146;2022-10-16T03:30:48;5.53;;;1.70;;
55483;SDS011;41345;51.704;5.146;2022-10-16T03:35:52;8.05;;;1.80;;
55483;SDS011;41345;51.704;5.146;2022-10-16T03:40:53;4.05;;;1.50;;
55483;SDS011;41345;51.704;5.146;2022-10-16T03:45:54;3.92;;;1.55;;
55483;SDS011;41345;51.704;5.146;2022-10-16T03:50:54;4.93;;;1.63;;
55483;SDS011;41345;51.704;5.146;2022-10-16T03:55:55;6.68;;;1.95;;
55483;SDS011;41345;51.704;5.146;2022-10-16T04:00:55;6.80;;;1.90;;
55483;SDS011;41345;51.704;5.146;2022-10-16T04:05:56;5.90;;;1.90;;
55483;SDS011;41345;51.704;5.146;2022-10-16T04:10:56;8.02;;;1.70;;
55483;SDS011;41345;51.704;5.146;2022-10-16T04:15:57;3.40;;;1.60;;
55483;SDS011;41345;51.704;5.146;2022-10-16T04:21:01;4.57;;;2.00;;
55483;SDS011;41345;51.704;5.146;2022-10-16T04:26:05;5.07;;;1.90;;
55483;SDS011;41345;51.704;5.146;2022-10-16T04:31:06;7.47;;;1.97;;
55483;SDS011;41345;51.704;5.146;2022-10-16T04:36:06;10.23;;;2.08;;
55483;SDS011;41345;51.704;5.146;2022-10-16T04:41:07;4.93;;;2.00;;
55483;SDS011;41345;51.704;5.146;2022-10-16T04:46:07;4.72;;;1.90;;
55483;SDS011;41345;51.704;5.146;2022-10-16T04:51:08;4.10;;;2.00;;
55483;SDS011;41345;51.704;5.146;2022-10-16T04:56:08;6.60;;;1.95;;
55483;SDS011;41345;51.704;5.146;2022-10-16T05:01:08;5.37;;;2.10;;
55483;SDS011;41345;51.704;5.146;2022-10-16T05:06:09;6.07;;;2.30;;
55483;SDS011;41345;51.704;5.146;2022-10-16T05:11:09;5.60;;;2.40;;
55483;SDS011;41345;51.704;5.146;2022-10-16T05:16:10;7.03;;;2.37;;
55483;SDS011;41345;51.704;5.146;2022-10-16T05:21:10;6.17;;;2.03;;
55483;SDS011;41345;51.704;5.146;2022-10-16T05:26:10;7.30;;;2.20;;
55483;SDS011;41345;51.704;5.146;2022-10-16T05:31:11;5.18;;;2.00;;
55483;SDS011;41345;51.704;5.146;2022-10-16T05:36:11;10.35;;;2.42;;
55483;SDS011;41345;51.704;5.146;2022-10-16T05:41:12;6.05;;;2.30;;
55483;SDS011;41345;51.704;5.146;2022-10-16T05:46:13;7.32;;;2.03;;
55483;SDS011;41345;51.704;5.146;2022-10-16T05:51:14;5.95;;;2.28;;
55483;SDS011;41345;51.704;5.146;2022-10-16T05:56:15;5.13;;;2.28;;
55483;SDS011;41345;51.704;5.146;2022-10-16T06:01:16;6.28;;;2.05;;
55483;SDS011;41345;51.704;5.146;2022-10-16T06:06:22;9.15;;;2.42;;
55483;SDS011;41345;51.704;5.146;2022-10-16T06:11:26;4.80;;;2.17;;
55483;SDS011;41345;51.704;5.146;2022-10-16T06:16:29;6.10;;;2.28;;
55483;SDS011;41345;51.704;5.146;2022-10-16T06:21:29;5.55;;;2.10;;
55483;SDS011;41345;51.704;5.146;2022-10-16T06:26:32;7.05;;;2.45;;
55483;SDS011;41345;51.704;5.146;2022-10-16T06:31:32;3.33;;;1.85;;
55483;SDS011;41345;51.704;5.146;2022-10-16T06:36:33;7.25;;;2.92;;
55483;SDS011;41345;51.704;5.146;2022-10-16T06:41:34;6.35;;;2.15;;
55483;SDS011;41345;51.704;5.146;2022-10-16T06:46:34;7.90;;;2.30;;
55483;SDS011;41345;51.704;5.146;2022-10-16T06:51:35;7.47;;;2.42;;
55483;SDS011;41345;51.704;5.146;2022-10-16T06:56:41;8.82;;;2.40;;
55483;SDS011;41345;51.704;5.146;2022-10-16T07:01:41;9.05;;;2.55;;
55483;SDS011;41345;51.704;5.146;2022-10-16T07:06:41;5.67;;;2.40;;
55483;SDS011;41345;51.704;5.146;2022-10-16T07:11:42;9.27;;;2.30;;
55483;SDS011;41345;51.704;5.146;2022-10-16T07:16:42;5.60;;;2.50;;
55483;SDS011;41345;51.704;5.146;2022-10-16T07:21:43;5.22;;;2.13;;
55483;SDS011;41345;51.704;5.146;2022-10-16T07:26:44;5.68;;;2.20;;
55483;SDS011;41345;51.704;5.146;2022-10-16T07:31:46;4.93;;;2.35;;
55483;SDS011;41345;51.704;5.146;2022-10-16T07:36:48;6.03;;;2.30;;
55483;SDS011;41345;51.704;5.146;2022-10-16T07:41:49;7.68;;;2.30;;
55483;SDS011;41345;51.704;5.146;2022-10-16T07:46:50;5.43;;;2.00;;
55483;SDS011;41345;51.704;5.146;2022-10-16T07:51:50;4.18;;;1.95;;
55483;SDS011;41345;51.704;5.146;2022-10-16T07:56:51;8.43;;;2.37;;
55483;SDS011;41345;51.704;5.146;2022-10-16T08:01:51;6.70;;;2.22;;
55483;SDS011;41345;51.704;5.146;2022-10-16T08:06:51;6.13;;;2.30;;
55483;SDS011;41345;51.704;5.146;2022-10-16T08:11:52;4.18;;;1.98;;
55483;SDS011;41345;51.704;5.146;2022-10-16T08:16:52;7.22;;;2.28;;
55483;SDS011;41345;51.704;5.146;2022-10-16T08:21:53;6.07;;;2.40;;
55483;SDS011;41345;51.704;5.146;2022-10-16T08:26:53;7.07;;;2.05;;
55483;SDS011;41345;51.704;5.146;2022-10-16T08:31:54;7.47;;;2.67;;
55483;SDS011;41345;51.704;5.146;2022-10-16T08:36:55;9.48;;;2.35;;
55483;SDS011;41345;51.704;5.146;2022-10-16T08:42:07;8.32;;;2.60;;
55483;SDS011;41345;51.704;5.146;2022-10-16T08:52:25;11.68;;;2.67;;
55483;SDS011;41345;51.704;5.146;2022-10-16T08:57:33;8.35;;;2.10;;
55483;SDS011;41345;51.704;5.146;2022-10-16T09:02:35;13.05;;;2.50;;
55483;SDS011;41345;51.704;5.146;2022-10-16T09:07:57;7.10;;;2.58;;
55483;SDS011;41345;51.704;5.146;2022-10-16T09:13:17;9.82;;;1.95;;
55483;SDS011;41345;51.704;5.146;2022-10-16T09:18:29;12.55;;;1.98;;
55483;SDS011;41345;51.704;5.146;2022-10-16T09:23:32;10.32;;;2.00;;
55483;SDS011;41345;51.704;5.146;2022-10-16T09:33:36;10.02;;;2.20;;
55483;SDS011;41345;51.704;5.146;2022-10-16T09:38:39;8.35;;;1.95;;
55483;SDS011;41345;51.704;5.146;2022-10-16T09:43:51;15.55;;;3.38;;
55483;SDS011;41345;51.704;5.146;2022-10-16T09:48:58;11.20;;;2.15;;
55483;SDS011;41345;51.704;5.146;2022-10-16T09:59:21;13.88;;;2.20;;
55483;SDS011;41345;51.704;5.146;2022-10-16T10:04:36;12.43;;;2.90;;
55483;SDS011;41345;51.704;5.146;2022-10-16T10:09:49;11.52;;;2.35;;
55483;SDS011;41345;51.704;5.146;2022-10-16T10:14:55;11.18;;;2.40;;
55483;SDS011;41345;51.704;5.146;2022-10-16T10:19:58;11.85;;;2.00;;
55483;SDS011;41345;51.704;5.146;2022-10-16T10:57:29;12.70;;;2.13;;
55483;SDS011;41345;51.704;5.146;2022-10-16T11:08:07;11.95;;;2.58;;
55483;SDS011;41345;51.704;5.146;2022-10-16T11:18:25;14.82;;;2.03;;
55483;SDS011;41345;51.704;5.146;2022-10-16T11:23:33;12.23;;;2.08;;
55483;SDS011;41345;51.704;5.146;2022-10-16T11:28:45;10.80;;;1.90;;
55483;SDS011;41345;51.704;5.146;2022-10-16T11:33:55;11.48;;;2.05;;
55483;SDS011;41345;51.704;5.146;2022-10-16T11:39:38;10.52;;;1.90;;
55483;SDS011;41345;51.704;5.146;2022-10-16T11:44:44;14.90;;;2.10;;
55483;SDS011;41345;51.704;5.146;2022-10-16T11:49:59;15.88;;;2.38;;
55483;SDS011;41345;51.704;5.146;2022-10-16T12:00:22;14.13;;;1.83;;
55483;SDS011;41345;51.704;5.146;2022-10-16T12:05:36;16.60;;;2.00;;
55483;SDS011;41345;51.704;5.146;2022-10-16T12:21:14;17.75;;;2.70;;
55483;SDS011;41345;51.704;5.146;2022-10-16T12:26:50;22.45;;;4.57;;
55483;SDS011;41345;51.704;5.146;2022-10-16T12:31:46;12.55;;;1.95;;
55483;SDS011;41345;51.704;5.146;2022-10-16T12:36:48;14.00;;;2.40;;
55483;SDS011;41345;51.704;5.146;2022-10-16T12:42:00;10.80;;;1.80;;
55483;SDS011;41345;51.704;5.146;2022-10-16T12:47:04;12.75;;;2.13;;
55483;SDS011;41345;51.704;5.146;2022-10-16T12:52:22;17.58;;;2.28;;
55483;SDS011;41345;51.704;5.146;2022-10-16T13:24:50;11.88;;;2.28;;
55483;SDS011;41345;51.704;5.146;2022-10-16T13:35:22;14.15;;;2.20;;
55483;SDS011;41345;51.704;5.146;2022-10-16T13:40:24;12.63;;;2.40;;
55483;SDS011;41345;51.704;5.146;2022-10-16T13:45:25;11.63;;;2.15;;
55483;SDS011;41345;51.704;5.146;2022-10-16T13:50:25;10.13;;;2.10;;
55483;SDS011;41345;51.704;5.146;2022-10-16T13:55:26;12.50;;;2.43;;
55483;SDS011;41345;51.704;5.146;2022-10-16T14:00:28;13.77;;;3.22;;
55483;SDS011;41345;51.704;5.146;2022-10-16T14:05:30;10.43;;;1.90;;
55483;SDS011;41345;51.704;5.146;2022-10-16T14:10:31;13.30;;;1.88;;
55483;SDS011;41345;51.704;5.146;2022-10-16T14:15:34;10.05;;;1.73;;
55483;SDS011;41345;51.704;5.146;2022-10-16T14:20:36;8.05;;;1.95;;
55483;SDS011;41345;51.704;5.146;2022-10-16T14:25:37;10.27;;;1.58;;
55483;SDS011;41345;51.704;5.146;2022-10-16T14:30:48;12.68;;;2.00;;
55483;SDS011;41345;51.704;5.146;2022-10-16T14:36:01;9.00;;;1.70;;
55483;SDS011;41345;51.704;5.146;2022-10-16T14:41:02;10.80;;;2.20;;
55483;SDS011;41345;51.704;5.146;2022-10-16T14:46:12;11.55;;;2.05;;
55483;SDS011;41345;51.704;5.146;2022-10-16T14:51:15;7.47;;;1.88;;
55483;SDS011;41345;51.704;5.146;2022-10-16T15:01:25;9.13;;;1.70;;
55483;SDS011;41345;51.704;5.146;2022-10-16T15:06:26;10.07;;;1.67;;
55483;SDS011;41345;51.704;5.146;2022-10-16T15:11:26;11.18;;;2.50;;
55483;SDS011;41345;51.704;5.146;2022-10-16T15:16:27;9.48;;;1.98;;
55483;SDS011;41345;51.704;5.146;2022-10-16T15:21:28;8.07;;;1.92;;
55483;SDS011;41345;51.704;5.146;2022-10-16T15:26:38;9.00;;;1.83;;
55483;SDS011;41345;51.704;5.146;2022-10-16T15:31:39;14.63;;;2.25;;
55483;SDS011;41345;51.704;5.146;2022-10-16T15:36:42;6.43;;;1.58;;
55483;SDS011;41345;51.704;5.146;2022-10-16T15:41:43;7.93;;;1.67;;
55483;SDS011;41345;51.704;5.146;2022-10-16T15:46:54;7.28;;;1.38;;
55483;SDS011;41345;51.704;5.146;2022-10-16T15:52:03;12.52;;;1.83;;
55483;SDS011;41345;51.704;5.146;2022-10-16T16:03:11;10.55;;;1.70;;
55483;SDS011;41345;51.704;5.146;2022-10-16T16:08:41;9.10;;;1.77;;
55483;SDS011;41345;51.704;5.146;2022-10-16T16:14:01;8.38;;;2.10;;
55483;SDS011;41345;51.704;5.146;2022-10-16T18:29:51;11.13;;;3.75;;
55483;SDS011;41345;51.704;5.146;2022-10-16T19:31:36;9.27;;;4.35;;
55483;SDS011;41345;51.704;5.146;2022-10-16T20:56:47;12.43;;;5.22;;
55483;SDS011;41345;51.704;5.146;2022-10-16T21:14:47;10.20;;;4.72;;
55483;SDS011;41345;51.704;5.146;2022-10-16T21:43:47;11.70;;;5.72;;
55483;SDS011;41345;51.704;5.146;2022-10-16T21:49:38;10.20;;;5.65;;
55483;SDS011;41345;51.704;5.146;2022-10-16T21:55:05;10.98;;;6.35;;
55483;SDS011;41345;51.704;5.146;2022-10-16T22:00:06;11.25;;;6.57;;
55483;SDS011;41345;51.704;5.146;2022-10-16T22:05:08;12.57;;;7.07;;
55483;SDS011;41345;51.704;5.146;2022-10-16T22:10:12;11.63;;;6.97;;
55483;SDS011;41345;51.704;5.146;2022-10-16T22:15:16;13.10;;;7.25;;
55483;SDS011;41345;51.704;5.146;2022-10-16T22:20:18;14.63;;;7.85;;
55483;SDS011;41345;51.704;5.146;2022-10-16T22:25:20;12.90;;;7.45;;
55483;SDS011;41345;51.704;5.146;2022-10-16T22:30:21;12.18;;;7.68;;
55483;SDS011;41345;51.704;5.146;2022-10-16T22:35:40;15.65;;;7.65;;
55483;SDS011;41345;51.704;5.146;2022-10-16T22:40:46;10.80;;;6.75;;
55483;SDS011;41345;51.704;5.146;2022-10-16T22:45:47;11.45;;;6.75;;
55483;SDS011;41345;51.704;5.146;2022-10-16T22:50:50;15.75;;;7.45;;
55483;SDS011;41345;51.704;5.146;2022-10-16T22:55:51;13.00;;;7.07;;
55483;SDS011;41345;51.704;5.146;2022-10-16T23:00:54;17.98;;;7.75;;
55483;SDS011;41345;51.704;5.146;2022-10-16T23:11:15;13.60;;;7.38;;
55483;SDS011;41345;51.704;5.146;2022-10-16T23:16:32;13.05;;;7.80;;
55483;SDS011;41345;51.704;5.146;2022-10-16T23:21:36;12.10;;;7.97;;
55483;SDS011;41345;51.704;5.146;2022-10-16T23:26:39;12.32;;;7.57;;
55483;SDS011;41345;51.704;5.146;2022-10-16T23:31:42;13.30;;;8.50;;
55483;SDS011;41345;51.704;5.146;2022-10-16T23:42:03;14.57;;;9.10;;
55483;SDS011;41345;51.704;5.146;2022-10-16T23:47:07;12.93;;;8.57;;
55483;SDS011;41345;51.704;5.146;2022-10-16T23:52:08;13.15;;;9.43;;
55483;SDS011;41345;51.704;5.146;2022-10-16T23:57:28;15.30;;;9.57;;
